sensor_id;sensor_type;location;lat;lon;timestamp;pressure;altitude;pressure_sealevel;temperature;humidity
68366;BME280;55283;51.466;5.478;2023-04-06T00:00:37;101655.00;;;21.31;43.65
68366;BME280;55283;51.466;5.478;2023-04-06T00:03:02;101658.53;;;21.35;43.49
68366;BME280;55283;51.466;5.478;2023-04-06T00:05:28;101656.09;;;21.37;43.56
68366;BME280;55283;51.466;5.478;2023-04-06T00:07:57;101658.53;;;21.35;43.44
68366;BME280;55283;51.466;5.478;2023-04-06T00:10:23;101655.72;;;21.35;43.39
68366;BME280;55283;51.466;5.478;2023-04-06T00:12:48;101644.88;;;21.37;43.35
68366;BME280;55283;51.466;5.478;2023-04-06T00:15:13;101654.16;;;21.34;43.44
68366;BME280;55283;51.466;5.478;2023-04-06T00:17:39;101660.91;;;21.37;43.51
68366;BME280;55283;51.466;5.478;2023-04-06T00:20:05;101651.34;;;21.34;43.31
68366;BME280;55283;51.466;5.478;2023-04-06T00:22:32;101650.97;;;21.32;43.39
68366;BME280;55283;51.466;5.478;2023-04-06T00:24:57;101653.38;;;21.34;43.60
68366;BME280;55283;51.466;5.478;2023-04-06T00:27:23;101646.59;;;21.31;43.40
68366;BME280;55283;51.466;5.478;2023-04-06T00:29:48;101642.56;;;21.32;43.51
68366;BME280;55283;51.466;5.478;2023-04-06T00:32:14;101643.38;;;21.33;43.53
68366;BME280;55283;51.466;5.478;2023-04-06T00:34:39;101633.03;;;21.30;43.40
68366;BME280;55283;51.466;5.478;2023-04-06T00:37:05;101635.38;;;21.31;43.55
68366;BME280;55283;51.466;5.478;2023-04-06T00:39:30;101624.66;;;21.26;43.34
68366;BME280;55283;51.466;5.478;2023-04-06T00:41:56;101625.81;;;21.29;43.52
68366;BME280;55283;51.466;5.478;2023-04-06T00:44:22;101627.81;;;21.28;43.55
68366;BME280;55283;51.466;5.478;2023-04-06T00:46:47;101629.84;;;21.28;43.43
68366;BME280;55283;51.466;5.478;2023-04-06T00:49:13;101621.84;;;21.26;43.50
68366;BME280;55283;51.466;5.478;2023-04-06T00:51:38;101623.00;;;21.29;43.32
68366;BME280;55283;51.466;5.478;2023-04-06T00:54:04;101616.25;;;21.26;43.53
68366;BME280;55283;51.466;5.478;2023-04-06T00:56:30;101611.41;;;21.27;43.34
68366;BME280;55283;51.466;5.478;2023-04-06T00:58:56;101611.78;;;21.29;43.33
68366;BME280;55283;51.466;5.478;2023-04-06T01:01:23;101612.56;;;21.29;42.92
68366;BME280;55283;51.466;5.478;2023-04-06T01:03:48;101601.34;;;21.29;43.32
68366;BME280;55283;51.466;5.478;2023-04-06T01:06:15;101602.59;;;21.28;43.32
68366;BME280;55283;51.466;5.478;2023-04-06T01:08:40;101601.00;;;21.27;43.27
68366;BME280;55283;51.466;5.478;2023-04-06T01:11:06;101587.47;;;21.22;43.29
68366;BME280;55283;51.466;5.478;2023-04-06T01:13:31;101594.59;;;21.27;43.26
68366;BME280;55283;51.466;5.478;2023-04-06T01:15:57;101595.09;;;21.21;43.49
68366;BME280;55283;51.466;5.478;2023-04-06T01:18:29;101587.56;;;21.18;43.51
68366;BME280;55283;51.466;5.478;2023-04-06T01:20:55;101595.91;;;21.22;43.45
68366;BME280;55283;51.466;5.478;2023-04-06T01:23:21;101595.53;;;21.20;43.51
68366;BME280;55283;51.466;5.478;2023-04-06T01:25:46;101600.28;;;21.23;43.31
68366;BME280;55283;51.466;5.478;2023-04-06T01:28:12;101596.25;;;21.24;43.36
68366;BME280;55283;51.466;5.478;2023-04-06T01:30:37;101591.53;;;21.21;43.50
68366;BME280;55283;51.466;5.478;2023-04-06T01:33:03;101589.91;;;21.20;43.41
68366;BME280;55283;51.466;5.478;2023-04-06T01:35:29;101591.53;;;21.21;43.46
68366;BME280;55283;51.466;5.478;2023-04-06T01:37:55;101580.31;;;21.21;43.33
68366;BME280;55283;51.466;5.478;2023-04-06T01:40:20;101587.47;;;21.22;43.57
68366;BME280;55283;51.466;5.478;2023-04-06T01:42:46;101579.50;;;21.20;43.34
68366;BME280;55283;51.466;5.478;2023-04-06T01:45:12;101571.88;;;21.21;43.38
68366;BME280;55283;51.466;5.478;2023-04-06T01:47:37;101570.66;;;21.22;43.33
68366;BME280;55283;51.466;5.478;2023-04-06T01:50:03;101568.28;;;21.20;43.32
68366;BME280;55283;51.466;5.478;2023-04-06T01:52:32;101566.69;;;21.19;43.28
68366;BME280;55283;51.466;5.478;2023-04-06T01:54:58;101568.28;;;21.20;43.36
68366;BME280;55283;51.466;5.478;2023-04-06T01:57:24;101572.31;;;21.19;43.50
68366;BME280;55283;51.466;5.478;2023-04-06T01:59:50;101553.97;;;21.15;43.47
68366;BME280;55283;51.466;5.478;2023-04-06T02:02:16;101552.69;;;21.19;43.19
68366;BME280;55283;51.466;5.478;2023-04-06T02:04:41;101554.25;;;21.20;43.07
68366;BME280;55283;51.466;5.478;2023-04-06T02:07:07;101547.44;;;21.21;43.19
68366;BME280;55283;51.466;5.478;2023-04-06T02:09:32;101557.88;;;21.21;43.19
68366;BME280;55283;51.466;5.478;2023-04-06T02:11:57;101547.50;;;21.18;43.26
68366;BME280;55283;51.466;5.478;2023-04-06T02:14:25;101533.50;;;21.14;43.57
68366;BME280;55283;51.466;5.478;2023-04-06T02:16:50;101541.88;;;21.18;43.24
68366;BME280;55283;51.466;5.478;2023-04-06T02:19:16;101546.28;;;21.19;43.20
68366;BME280;55283;51.466;5.478;2023-04-06T02:21:42;101541.53;;;21.16;43.20
68366;BME280;55283;51.466;5.478;2023-04-06T02:24:07;101543.91;;;21.17;43.41
68366;BME280;55283;51.466;5.478;2023-04-06T02:26:33;101535.84;;;21.19;43.20
68366;BME280;55283;51.466;5.478;2023-04-06T02:28:58;101543.91;;;21.17;43.36
68366;BME280;55283;51.466;5.478;2023-04-06T02:31:23;101542.25;;;21.20;43.20
68366;BME280;55283;51.466;5.478;2023-04-06T02:33:49;101524.28;;;21.17;43.14
68366;BME280;55283;51.466;5.478;2023-04-06T02:36:14;101536.28;;;21.18;43.38
68366;BME280;55283;51.466;5.478;2023-04-06T02:38:40;101526.28;;;21.17;43.47
68366;BME280;55283;51.466;5.478;2023-04-06T02:41:06;101523.47;;;21.17;43.38
68366;BME280;55283;51.466;5.478;2023-04-06T02:43:32;101517.09;;;21.16;43.29
68366;BME280;55283;51.466;5.478;2023-04-06T02:45:58;101518.31;;;21.15;43.22
68366;BME280;55283;51.466;5.478;2023-04-06T02:48:23;101513.84;;;21.18;43.20
68366;BME280;55283;51.466;5.478;2023-04-06T02:50:48;101501.88;;;21.14;43.17
68366;BME280;55283;51.466;5.478;2023-04-06T02:53:14;101500.31;;;21.13;43.27
68366;BME280;55283;51.466;5.478;2023-04-06T02:55:40;101499.88;;;21.14;43.16
68366;BME280;55283;51.466;5.478;2023-04-06T02:58:05;101508.72;;;21.13;43.43
68366;BME280;55283;51.466;5.478;2023-04-06T03:00:31;101505.13;;;21.12;43.28
68366;BME280;55283;51.466;5.478;2023-04-06T03:02:56;101489.09;;;21.13;43.28
68366;BME280;55283;51.466;5.478;2023-04-06T03:05:21;101493.94;;;21.12;43.15
68366;BME280;55283;51.466;5.478;2023-04-06T03:07:47;101480.31;;;21.11;43.29
68366;BME280;55283;51.466;5.478;2023-04-06T03:10:12;101495.50;;;21.13;43.29
68366;BME280;55283;51.466;5.478;2023-04-06T03:12:38;101479.66;;;21.03;43.28
68366;BME280;55283;51.466;5.478;2023-04-06T03:15:04;101494.75;;;21.09;43.44
68366;BME280;55283;51.466;5.478;2023-04-06T03:17:29;101483.53;;;21.09;43.25
68366;BME280;55283;51.466;5.478;2023-04-06T03:19:55;101475.50;;;21.11;43.19
68366;BME280;55283;51.466;5.478;2023-04-06T03:22:20;101484.28;;;21.13;43.18
68366;BME280;55283;51.466;5.478;2023-04-06T03:24:46;101480.25;;;21.14;43.18
68366;BME280;55283;51.466;5.478;2023-04-06T03:27:11;101478.69;;;21.13;43.05
68366;BME280;55283;51.466;5.478;2023-04-06T03:29:36;101482.25;;;21.14;43.11
68366;BME280;55283;51.466;5.478;2023-04-06T03:32:02;101484.69;;;21.12;43.18
68366;BME280;55283;51.466;5.478;2023-04-06T03:34:28;101465.22;;;21.05;43.16
68366;BME280;55283;51.466;5.478;2023-04-06T03:36:53;101473.19;;;21.06;43.21
68366;BME280;55283;51.466;5.478;2023-04-06T03:39:19;101471.13;;;21.10;43.36
68366;BME280;55283;51.466;5.478;2023-04-06T03:41:44;101476.75;;;21.10;43.44
68366;BME280;55283;51.466;5.478;2023-04-06T03:44:10;101468.31;;;21.10;43.28
68366;BME280;55283;51.466;5.478;2023-04-06T03:46:35;101473.50;;;21.12;43.23
68366;BME280;55283;51.466;5.478;2023-04-06T03:49:01;101473.94;;;21.10;43.16
68366;BME280;55283;51.466;5.478;2023-04-06T03:51:27;101472.00;;;21.07;43.26
68366;BME280;55283;51.466;5.478;2023-04-06T03:53:52;101474.34;;;21.09;43.20
68366;BME280;55283;51.466;5.478;2023-04-06T03:56:18;101477.94;;;21.09;43.19
68366;BME280;55283;51.466;5.478;2023-04-06T03:58:43;101472.34;;;21.09;43.21
68366;BME280;55283;51.466;5.478;2023-04-06T04:01:10;101475.13;;;21.09;43.18
68366;BME280;55283;51.466;5.478;2023-04-06T04:03:36;101478.75;;;21.10;43.25
68366;BME280;55283;51.466;5.478;2023-04-06T04:06:01;101478.75;;;21.10;43.10
68366;BME280;55283;51.466;5.478;2023-04-06T04:08:27;101475.50;;;21.11;43.25
68366;BME280;55283;51.466;5.478;2023-04-06T04:10:52;101476.38;;;21.08;43.13
68366;BME280;55283;51.466;5.478;2023-04-06T04:13:18;101483.50;;;21.13;43.16
68366;BME280;55283;51.466;5.478;2023-04-06T04:15:43;101473.16;;;21.10;43.38
68366;BME280;55283;51.466;5.478;2023-04-06T04:18:09;101478.31;;;21.11;42.98
68366;BME280;55283;51.466;5.478;2023-04-06T04:20:34;101476.28;;;21.12;43.08
68366;BME280;55283;51.466;5.478;2023-04-06T04:23:00;101469.13;;;21.11;43.16
68366;BME280;55283;51.466;5.478;2023-04-06T04:25:25;101468.41;;;21.07;43.09
68366;BME280;55283;51.466;5.478;2023-04-06T04:27:51;101468.44;;;21.03;43.40
68366;BME280;55283;51.466;5.478;2023-04-06T04:30:16;101467.97;;;21.08;43.24
68366;BME280;55283;51.466;5.478;2023-04-06T04:32:42;101463.66;;;21.03;43.14
68366;BME280;55283;51.466;5.478;2023-04-06T04:35:07;101471.53;;;21.09;43.11
68366;BME280;55283;51.466;5.478;2023-04-06T04:37:33;101462.81;;;21.07;43.19
68366;BME280;55283;51.466;5.478;2023-04-06T04:40:00;101474.78;;;21.07;43.25
68366;BME280;55283;51.466;5.478;2023-04-06T04:42:25;101460.84;;;21.03;43.13
68366;BME280;55283;51.466;5.478;2023-04-06T04:44:51;101457.31;;;20.99;43.18
68366;BME280;55283;51.466;5.478;2023-04-06T04:47:17;101463.66;;;21.03;43.14
68366;BME280;55283;51.466;5.478;2023-04-06T04:49:42;101464.44;;;21.04;43.10
68366;BME280;55283;51.466;5.478;2023-04-06T04:52:08;101454.88;;;21.01;43.24
68366;BME280;55283;51.466;5.478;2023-04-06T04:54:33;101468.44;;;21.03;43.15
68366;BME280;55283;51.466;5.478;2023-04-06T04:56:59;101448.19;;;20.95;43.27
68366;BME280;55283;51.466;5.478;2023-04-06T04:59:24;101456.91;;;21.01;43.42
68366;BME280;55283;51.466;5.478;2023-04-06T05:01:49;101461.28;;;21.02;43.20
68366;BME280;55283;51.466;5.478;2023-04-06T05:04:15;101458.47;;;21.02;43.27
68366;BME280;55283;51.466;5.478;2023-04-06T05:06:40;101462.84;;;21.03;43.22
68366;BME280;55283;51.466;5.478;2023-04-06T05:09:06;101455.31;;;21.00;43.28
68366;BME280;55283;51.466;5.478;2023-04-06T05:11:31;101453.28;;;21.00;43.18
68366;BME280;55283;51.466;5.478;2023-04-06T05:13:56;101458.88;;;21.00;43.35
68366;BME280;55283;51.466;5.478;2023-04-06T05:16:22;101451.78;;;20.96;43.31
68366;BME280;55283;51.466;5.478;2023-04-06T05:18:48;101456.16;;;20.97;43.11
68366;BME280;55283;51.466;5.478;2023-04-06T05:21:14;101466.88;;;21.02;43.36
68366;BME280;55283;51.466;5.478;2023-04-06T05:23:39;101451.72;;;20.99;43.14
68366;BME280;55283;51.466;5.478;2023-04-06T05:26:05;101464.44;;;21.04;43.10
68366;BME280;55283;51.466;5.478;2023-04-06T05:28:30;101461.28;;;21.02;42.94
68366;BME280;55283;51.466;5.478;2023-04-06T05:30:56;101452.50;;;21.00;43.09
68366;BME280;55283;51.466;5.478;2023-04-06T05:33:22;101457.69;;;21.01;42.91
68366;BME280;55283;51.466;5.478;2023-04-06T05:35:48;101462.81;;;21.07;43.04
68366;BME280;55283;51.466;5.478;2023-04-06T05:38:13;101462.63;;;21.14;43.62
68366;BME280;55283;51.466;5.478;2023-04-06T05:40:39;101462.63;;;21.14;43.24
68366;BME280;55283;51.466;5.478;2023-04-06T05:43:06;101453.22;;;21.04;43.53
68366;BME280;55283;51.466;5.478;2023-04-06T05:45:32;101462.91;;;20.99;43.77
68366;BME280;55283;51.466;5.478;2023-04-06T05:47:57;101446.19;;;20.96;43.68
68366;BME280;55283;51.466;5.478;2023-04-06T05:50:23;101455.75;;;20.98;43.91
68366;BME280;55283;51.466;5.478;2023-04-06T05:52:48;101451.78;;;20.96;43.75
68366;BME280;55283;51.466;5.478;2023-04-06T05:55:14;101447.47;;;20.91;43.99
68366;BME280;55283;51.466;5.478;2023-04-06T05:57:39;101448.91;;;20.99;43.98
68366;BME280;55283;51.466;5.478;2023-04-06T06:00:06;101460.28;;;21.12;44.41
68366;BME280;55283;51.466;5.478;2023-04-06T06:02:34;101453.53;;;21.10;43.90
68366;BME280;55283;51.466;5.478;2023-04-06T06:04:59;101451.22;;;21.05;44.07
68366;BME280;55283;51.466;5.478;2023-04-06T06:07:25;101455.66;;;21.02;44.13
68366;BME280;55283;51.466;5.478;2023-04-06T06:09:50;101449.66;;;21.03;45.08
68366;BME280;55283;51.466;5.478;2023-04-06T06:12:16;101445.59;;;21.05;44.62
68366;BME280;55283;51.466;5.478;2023-04-06T06:14:41;101457.81;;;21.14;45.10
68366;BME280;55283;51.466;5.478;2023-04-06T06:17:07;101463.31;;;21.21;44.97
68366;BME280;55283;51.466;5.478;2023-04-06T06:19:32;101449.72;;;21.20;44.85
68366;BME280;55283;51.466;5.478;2023-04-06T06:21:57;101464.25;;;21.15;44.41
68366;BME280;55283;51.466;5.478;2023-04-06T06:24:23;101459.13;;;21.10;43.02
68366;BME280;55283;51.466;5.478;2023-04-06T06:26:49;101459.44;;;21.15;43.30
68366;BME280;55283;51.466;5.478;2023-04-06T06:29:15;101456.25;;;21.13;43.50
68366;BME280;55283;51.466;5.478;2023-04-06T06:31:40;101452.66;;;21.13;43.64
68366;BME280;55283;51.466;5.478;2023-04-06T06:34:05;101453.94;;;21.08;43.95
68366;BME280;55283;51.466;5.478;2023-04-06T06:36:32;101461.97;;;21.06;44.08
68366;BME280;55283;51.466;5.478;2023-04-06T06:38:58;101458.88;;;21.00;44.04
68366;BME280;55283;51.466;5.478;2023-04-06T06:41:25;101455.66;;;20.82;39.21
68366;BME280;55283;51.466;5.478;2023-04-06T06:43:51;101459.47;;;20.72;38.15
68366;BME280;55283;51.466;5.478;2023-04-06T06:46:16;101462.22;;;20.52;34.62
68366;BME280;55283;51.466;5.478;2023-04-06T06:48:42;101454.28;;;20.47;33.39
68366;BME280;55283;51.466;5.478;2023-04-06T06:51:07;101459.69;;;20.34;31.71
68366;BME280;55283;51.466;5.478;2023-04-06T06:53:34;101448.47;;;20.10;30.82
68366;BME280;55283;51.466;5.478;2023-04-06T06:56:00;101458.84;;;20.10;30.03
68366;BME280;55283;51.466;5.478;2023-04-06T06:58:26;101458.97;;;20.03;29.83
68366;BME280;55283;51.466;5.478;2023-04-06T07:00:58;101448.63;;;20.00;30.42
68366;BME280;55283;51.466;5.478;2023-04-06T07:03:24;101444.81;;;19.90;28.92
68366;BME280;55283;51.466;5.478;2023-04-06T07:05:50;101454.78;;;19.91;29.48
68366;BME280;55283;51.466;5.478;2023-04-06T07:08:20;101452.19;;;19.77;28.70
68366;BME280;55283;51.466;5.478;2023-04-06T07:10:46;101458.19;;;19.75;27.75
68366;BME280;55283;51.466;5.478;2023-04-06T07:13:11;101455.91;;;19.66;29.00
68366;BME280;55283;51.466;5.478;2023-04-06T07:15:37;101444.19;;;19.75;29.48
68366;BME280;55283;51.466;5.478;2023-04-06T07:18:03;101444.84;;;19.86;30.51
68366;BME280;55283;51.466;5.478;2023-04-06T07:20:28;101450.75;;;19.92;31.65
68366;BME280;55283;51.466;5.478;2023-04-06T07:22:54;101439.56;;;19.92;32.19
68366;BME280;55283;51.466;5.478;2023-04-06T07:25:20;101439.28;;;20.10;32.44
68366;BME280;55283;51.466;5.478;2023-04-06T07:27:45;101438.94;;;20.08;33.20
68366;BME280;55283;51.466;5.478;2023-04-06T07:30:11;101441.19;;;20.17;33.16
68366;BME280;55283;51.466;5.478;2023-04-06T07:32:36;101443.13;;;20.20;34.05
68366;BME280;55283;51.466;5.478;2023-04-06T07:35:03;101443.47;;;20.22;34.49
68366;BME280;55283;51.466;5.478;2023-04-06T07:37:28;101437.53;;;20.20;34.75
68366;BME280;55283;51.466;5.478;2023-04-06T07:39:54;101413.78;;;20.04;34.97
68366;BME280;55283;51.466;5.478;2023-04-06T07:42:19;101449.06;;;20.22;35.14
68366;BME280;55283;51.466;5.478;2023-04-06T07:44:45;101437.03;;;20.25;35.30
68366;BME280;55283;51.466;5.478;2023-04-06T07:47:10;101441.34;;;20.29;35.60
68366;BME280;55283;51.466;5.478;2023-04-06T07:49:36;101431.69;;;20.34;35.76
68366;BME280;55283;51.466;5.478;2023-04-06T07:52:02;101434.91;;;20.32;35.99
68366;BME280;55283;51.466;5.478;2023-04-06T07:54:28;101427.81;;;20.28;36.40
68366;BME280;55283;51.466;5.478;2023-04-06T07:56:53;101430.88;;;20.33;36.42
68366;BME280;55283;51.466;5.478;2023-04-06T07:59:19;101433.25;;;20.35;36.62
68366;BME280;55283;51.466;5.478;2023-04-06T08:01:44;101428.06;;;20.37;36.56
68366;BME280;55283;51.466;5.478;2023-04-06T08:04:10;101430.44;;;20.39;36.84
68366;BME280;55283;51.466;5.478;2023-04-06T08:06:35;101436.78;;;20.43;36.87
68366;BME280;55283;51.466;5.478;2023-04-06T08:09:02;101437.56;;;20.43;37.16
68366;BME280;55283;51.466;5.478;2023-04-06T08:11:28;101441.94;;;20.44;37.32
68366;BME280;55283;51.466;5.478;2023-04-06T08:13:54;101435.53;;;20.44;37.41
68366;BME280;55283;51.466;5.478;2023-04-06T08:16:22;101431.09;;;20.46;37.37
68366;BME280;55283;51.466;5.478;2023-04-06T08:18:47;101441.06;;;20.47;37.59
68366;BME280;55283;51.466;5.478;2023-04-06T08:21:13;101437.63;;;20.40;37.54
68366;BME280;55283;51.466;5.478;2023-04-06T08:23:38;101435.25;;;20.38;38.00
68366;BME280;55283;51.466;5.478;2023-04-06T08:26:04;101442.31;;;20.46;37.97
68366;BME280;55283;51.466;5.478;2023-04-06T08:28:29;101441.44;;;20.49;37.98
68366;BME280;55283;51.466;5.478;2023-04-06T08:30:55;101443.03;;;20.50;37.98
68366;BME280;55283;51.466;5.478;2023-04-06T08:33:20;101450.22;;;20.51;38.07
68366;BME280;55283;51.466;5.478;2023-04-06T08:35:46;101445.81;;;20.50;37.56
68366;BME280;55283;51.466;5.478;2023-04-06T08:38:11;101447.13;;;20.46;35.85
68366;BME280;55283;51.466;5.478;2023-04-06T08:40:37;101442.31;;;20.46;36.51
68366;BME280;55283;51.466;5.478;2023-04-06T08:43:06;101439.50;;;20.46;36.78
68366;BME280;55283;51.466;5.478;2023-04-06T08:45:34;101442.69;;;20.48;36.79
68366;BME280;55283;51.466;5.478;2023-04-06T08:47:59;101443.09;;;20.47;37.64
68366;BME280;55283;51.466;5.478;2023-04-06T08:50:28;101445.41;;;20.52;37.44
68366;BME280;55283;51.466;5.478;2023-04-06T08:52:55;101446.97;;;20.53;37.98
68366;BME280;55283;51.466;5.478;2023-04-06T08:55:21;101450.22;;;20.51;37.99
68366;BME280;55283;51.466;5.478;2023-04-06T08:57:48;101443.81;;;20.51;37.98
68366;BME280;55283;51.466;5.478;2023-04-06T09:00:14;101443.38;;;20.52;38.19
68366;BME280;55283;51.466;5.478;2023-04-06T09:02:43;101434.28;;;20.48;38.08
68366;BME280;55283;51.466;5.478;2023-04-06T09:05:10;101445.41;;;20.52;38.26
68366;BME280;55283;51.466;5.478;2023-04-06T09:07:36;101441.81;;;20.51;38.46
68366;BME280;55283;51.466;5.478;2023-04-06T09:10:06;101456.91;;;20.57;38.43
68366;BME280;55283;51.466;5.478;2023-04-06T09:12:32;101455.31;;;20.56;38.36
68366;BME280;55283;51.466;5.478;2023-04-06T09:14:59;101453.31;;;20.57;38.44
68366;BME280;55283;51.466;5.478;2023-04-06T09:17:26;101458.94;;;20.57;38.44
68366;BME280;55283;51.466;5.478;2023-04-06T09:19:53;101453.75;;;20.55;38.96
68366;BME280;55283;51.466;5.478;2023-04-06T09:22:19;101454.13;;;20.57;38.63
68366;BME280;55283;51.466;5.478;2023-04-06T09:24:54;101458.47;;;20.58;38.96
68366;BME280;55283;51.466;5.478;2023-04-06T09:27:33;101443.03;;;20.50;38.91
68366;BME280;55283;51.466;5.478;2023-04-06T09:32:31;101459.66;;;20.61;38.94
68366;BME280;55283;51.466;5.478;2023-04-06T09:35:06;101451.31;;;20.57;39.17
68366;BME280;55283;51.466;5.478;2023-04-06T09:37:32;101458.00;;;20.64;39.03
68366;BME280;55283;51.466;5.478;2023-04-06T09:40:05;101454.13;;;20.57;39.26
68366;BME280;55283;51.466;5.478;2023-04-06T09:42:32;101459.66;;;20.61;39.38
68366;BME280;55283;51.466;5.478;2023-04-06T09:44:57;101455.56;;;20.66;39.38
68366;BME280;55283;51.466;5.478;2023-04-06T09:47:24;101453.19;;;20.64;39.29
68366;BME280;55283;51.466;5.478;2023-04-06T09:49:56;101463.59;;;20.64;39.57
68366;BME280;55283;51.466;5.478;2023-04-06T09:52:26;101456.41;;;20.63;40.04
68366;BME280;55283;51.466;5.478;2023-04-06T09:54:55;101462.00;;;20.63;39.80
68366;BME280;55283;51.466;5.478;2023-04-06T09:57:27;101458.78;;;20.64;39.91
68366;BME280;55283;51.466;5.478;2023-04-06T10:00:05;101449.22;;;20.62;40.36
68366;BME280;55283;51.466;5.478;2023-04-06T10:02:47;101457.50;;;20.69;40.80
68366;BME280;55283;51.466;5.478;2023-04-06T10:08:14;101457.94;;;20.67;41.11
68366;BME280;55283;51.466;5.478;2023-04-06T10:10:41;101454.34;;;20.67;41.33
68366;BME280;55283;51.466;5.478;2023-04-06T10:13:07;101460.81;;;20.64;40.90
68366;BME280;55283;51.466;5.478;2023-04-06T10:15:35;101462.66;;;20.70;40.29
68366;BME280;55283;51.466;5.478;2023-04-06T10:18:03;101461.88;;;20.70;40.95
68366;BME280;55283;51.466;5.478;2023-04-06T10:23:19;101461.09;;;20.69;41.07
68366;BME280;55283;51.466;5.478;2023-04-06T10:25:56;101471.38;;;20.76;41.04
68366;BME280;55283;51.466;5.478;2023-04-06T10:28:23;101469.81;;;20.75;41.60
68366;BME280;55283;51.466;5.478;2023-04-06T10:30:48;101462.97;;;20.76;41.35
68366;BME280;55283;51.466;5.478;2023-04-06T10:33:15;101460.53;;;20.78;41.03
68366;BME280;55283;51.466;5.478;2023-04-06T10:35:41;101459.38;;;20.75;41.55
68366;BME280;55283;51.466;5.478;2023-04-06T10:38:07;101459.78;;;20.74;40.91
68366;BME280;55283;51.466;5.478;2023-04-06T10:40:36;101460.97;;;20.76;41.48
68366;BME280;55283;51.466;5.478;2023-04-06T10:43:12;101454.16;;;20.77;43.15
68366;BME280;55283;51.466;5.478;2023-04-06T10:45:38;101460.16;;;20.76;42.46
68366;BME280;55283;51.466;5.478;2023-04-06T10:48:15;101453.78;;;20.75;42.43
68366;BME280;55283;51.466;5.478;2023-04-06T10:50:46;101460.16;;;20.76;42.16
68366;BME280;55283;51.466;5.478;2023-04-06T10:53:11;101455.72;;;20.78;42.33
68366;BME280;55283;51.466;5.478;2023-04-06T10:55:39;101461.31;;;20.78;42.17
68366;BME280;55283;51.466;5.478;2023-04-06T10:58:07;101446.53;;;20.78;42.17
68366;BME280;55283;51.466;5.478;2023-04-06T11:00:33;101450.53;;;20.77;42.04
68366;BME280;55283;51.466;5.478;2023-04-06T11:02:59;101450.53;;;20.77;42.14
68366;BME280;55283;51.466;5.478;2023-04-06T11:05:26;101445.66;;;20.81;42.16
68366;BME280;55283;51.466;5.478;2023-04-06T11:07:51;101440.16;;;20.77;42.09
68366;BME280;55283;51.466;5.478;2023-04-06T11:10:21;101445.66;;;20.81;41.89
68366;BME280;55283;51.466;5.478;2023-04-06T11:12:55;101443.72;;;20.78;42.15
68366;BME280;55283;51.466;5.478;2023-04-06T11:15:21;101444.94;;;20.77;41.96
68366;BME280;55283;51.466;5.478;2023-04-06T11:17:47;101442.56;;;20.75;42.06
68366;BME280;55283;51.466;5.478;2023-04-06T11:20:14;101441.78;;;20.75;42.08
68366;BME280;55283;51.466;5.478;2023-04-06T11:22:52;101436.59;;;20.73;42.24
68366;BME280;55283;51.466;5.478;2023-04-06T11:25:17;101436.59;;;20.73;42.13
68366;BME280;55283;51.466;5.478;2023-04-06T11:27:43;101440.94;;;20.78;42.16
68366;BME280;55283;51.466;5.478;2023-04-06T11:30:10;101433.78;;;20.73;42.10
68366;BME280;55283;51.466;5.478;2023-04-06T11:32:42;101435.16;;;20.85;42.11
68366;BME280;55283;51.466;5.478;2023-04-06T11:35:26;101423.97;;;20.85;42.00
68366;BME280;55283;51.466;5.478;2023-04-06T11:37:52;101422.47;;;20.80;41.81
68366;BME280;55283;51.466;5.478;2023-04-06T11:40:21;101423.19;;;20.85;41.90
68366;BME280;55283;51.466;5.478;2023-04-06T11:42:55;101423.19;;;20.85;41.91
68366;BME280;55283;51.466;5.478;2023-04-06T11:45:20;101414.47;;;20.79;41.81
68366;BME280;55283;51.466;5.478;2023-04-06T11:47:55;101407.22;;;20.82;42.18
68366;BME280;55283;51.466;5.478;2023-04-06T11:50:21;101406.06;;;20.79;42.13
68366;BME280;55283;51.466;5.478;2023-04-06T11:52:58;101410.81;;;20.82;42.04
68366;BME280;55283;51.466;5.478;2023-04-06T11:55:24;101398.41;;;20.83;42.05
68366;BME280;55283;51.466;5.478;2023-04-06T11:57:49;101397.25;;;20.80;42.38
68366;BME280;55283;51.466;5.478;2023-04-06T12:00:17;101401.91;;;20.87;42.36
68366;BME280;55283;51.466;5.478;2023-04-06T12:02:45;101394.28;;;20.88;42.44
68366;BME280;55283;51.466;5.478;2023-04-06T12:05:11;101396.69;;;20.89;42.23
68366;BME280;55283;51.466;5.478;2023-04-06T12:07:36;101402.28;;;20.89;42.30
68366;BME280;55283;51.466;5.478;2023-04-06T12:10:02;101392.66;;;20.90;42.10
68366;BME280;55283;51.466;5.478;2023-04-06T12:12:28;101378.34;;;20.85;42.33
68366;BME280;55283;51.466;5.478;2023-04-06T12:14:54;101387.53;;;20.85;42.18
68366;BME280;55283;51.466;5.478;2023-04-06T12:17:20;101385.47;;;20.89;42.28
68366;BME280;55283;51.466;5.478;2023-04-06T12:19:46;101386.38;;;20.83;42.25
68366;BME280;55283;51.466;5.478;2023-04-06T12:22:11;101382.28;;;20.87;42.32
68366;BME280;55283;51.466;5.478;2023-04-06T12:24:37;101372.66;;;20.88;42.28
68366;BME280;55283;51.466;5.478;2023-04-06T12:27:02;101376.78;;;20.84;42.42
68366;BME280;55283;51.466;5.478;2023-04-06T12:29:28;101375.13;;;20.86;42.30
68366;BME280;55283;51.466;5.478;2023-04-06T12:31:53;101373.44;;;20.89;42.29
68366;BME280;55283;51.466;5.478;2023-04-06T12:34:19;101378.25;;;20.88;42.42
68366;BME280;55283;51.466;5.478;2023-04-06T12:36:44;101378.72;;;20.87;42.40
68366;BME280;55283;51.466;5.478;2023-04-06T12:39:10;101387.91;;;20.87;42.23
68366;BME280;55283;51.466;5.478;2023-04-06T12:41:36;101384.25;;;20.90;42.27
68366;BME280;55283;51.466;5.478;2023-04-06T12:44:02;101386.66;;;20.88;42.28
68366;BME280;55283;51.466;5.478;2023-04-06T12:46:27;101389.47;;;20.88;42.18
68366;BME280;55283;51.466;5.478;2023-04-06T12:48:55;101372.66;;;20.88;42.16
68366;BME280;55283;51.466;5.478;2023-04-06T12:51:21;101379.88;;;20.89;42.38
68366;BME280;55283;51.466;5.478;2023-04-06T12:53:48;101372.16;;;20.93;42.43